Airfield :
LOGIN :

Register | Disclaimer

   EN    FR    IT 

 










Legend :    VFR   Marginal VFR   IFR   Intensive IFR   Very Intensive IFR
Visi :
Ceiling :
>= 8 km
>= 3000ft
5 to 8 km
1000 to 3000 ft
1500m to 5 km
500 to 1000 ft
800 to 1500m
200 to 500 ft
< 800m
< 200 ft
Symbols :   Thunderstorms  Fog  Heavy snow  Heavy precipitations  Wind > 20 kt
SIGMETs :     Misc.  Thunderstorms  Icing  Turbulence  Mountain Waves  Volcanic Ashes







- Airport Elevation : 526 ft
- IATA code : LTN
- Download approach charts


EGGW - London Luton

CURRENT METAR :
  • 142150Z AUTO 26014KT 9999 SCT017 BKN025 03/01 Q0987

EXPIRED METARs :
  • 142120Z AUTO 25010KT 9999 SCT025 BKN031 03/01 Q0987
  • 142050Z AUTO 23009KT 9999 BKN025 02/01 Q0987
  • 142020Z AUTO 22008KT 9999 NCD 02/00 Q0987
  • 141950Z AUTO 24011KT 9999 SCT030 02/01 Q0987
  • 141920Z AUTO 22008KT 9999 NCD 01/00 Q0987

TAF TAF EGGW
Valid from the 14 at 18:00 until the 15 at 18:00 UTC


141702Z 1418/1518 22009KT 9999 SCT030
TEMPO 1420/1511 7000 SHRA BKN007
PROB30
TEMPO 1500/1511 3000 SHRASN BKN003
BECMG 1507/1510 34010KT
TEMPO 1511/1514 7000 SHRA BKN014
PROB30
TEMPO 1511/1518 35015G25KT
PROB30
TEMPO 1514/1518 7000 SHRA BKN012
ATIS : +44 1582 395 204
No reported NOTAMs for that airfield.
1 SIGMET reported for the London FIR (EGTT) :
 
Severe turbulence
EGTT SIGMET 05 VALID 141900/142300 EGRR
EGTT LONDON FIR SEV TURB FCST SW OF LINE N5000 W00149 - N5152 W00623 SFC/FL060 STNR WKN=



MET'MAP, your aeronautical weather chart ! - Copyright ORBIFLY December 2007 - Disclaimer

ORBIFLY MET'MAP TEAM :

Programming & Development : Alexandra Zaïnal
Concept & Development : Baudouin d'Aumeries
Co-Development & Prog : Marc-Olivier Méhu
Technical & hardware support : Manuel Goepfert

Contact : metmap@orbifly.com




SOURCES & CREDITS :

   NOAA